createdAt,value
2022-11-17T00:00:20.461Z,6.88
2022-11-17T00:02:47.506Z,5.57
2022-11-17T00:05:14.171Z,4.65
2022-11-17T00:07:40.761Z,5.97
2022-11-17T00:10:07.604Z,5.13
2022-11-17T00:12:52.924Z,4.50
2022-11-17T00:15:19.503Z,4.65
2022-11-17T00:17:49.141Z,5.70
2022-11-17T00:20:34.497Z,5.20
2022-11-17T00:23:01.070Z,4.70
2022-11-17T00:25:27.654Z,7.13
2022-11-17T00:27:54.221Z,4.70
2022-11-17T00:30:42.500Z,4.68
2022-11-17T00:33:29.167Z,5.07
2022-11-17T00:35:55.796Z,5.22
2022-11-17T00:38:22.342Z,5.30
2022-11-17T00:40:48.946Z,4.20
2022-11-17T00:43:15.522Z,6.32
2022-11-17T00:45:42.142Z,5.40
2022-11-17T00:48:08.704Z,5.55
2022-11-17T00:50:35.265Z,5.47
2022-11-17T00:53:01.857Z,4.38
2022-11-17T00:55:28.524Z,4.65
2022-11-17T00:57:55.177Z,4.68
2022-11-17T01:00:21.879Z,4.85
2022-11-17T01:02:48.449Z,5.30
2022-11-17T01:05:15.232Z,5.60
2022-11-17T01:07:41.788Z,3.70
2022-11-17T01:10:08.705Z,4.25
2022-11-17T01:12:35.300Z,3.95
2022-11-17T01:15:01.885Z,4.75
2022-11-17T01:17:28.453Z,4.53
2022-11-17T01:19:55.065Z,3.95
2022-11-17T01:22:21.633Z,5.13
2022-11-17T01:24:48.174Z,6.03
2022-11-17T01:27:14.751Z,5.10
2022-11-17T01:29:41.300Z,5.68
2022-11-17T01:32:07.919Z,3.47
2022-11-17T01:34:34.474Z,5.65
2022-11-17T01:37:19.330Z,5.30
2022-11-17T01:39:45.988Z,5.00
2022-11-17T01:42:15.684Z,6.57
2022-11-17T01:44:49.190Z,4.22
2022-11-17T01:49:42.270Z,5.97
2022-11-17T01:52:10.521Z,3.22
2022-11-17T01:54:38.299Z,3.58
2022-11-17T01:57:08.128Z,6.78
2022-11-17T01:59:42.541Z,4.90
2022-11-17T02:02:09.316Z,4.45
2022-11-17T02:04:38.137Z,3.60
2022-11-17T02:07:19.849Z,4.43
2022-11-17T02:09:46.807Z,4.25
2022-11-17T02:12:14.191Z,5.35
2022-11-17T02:14:41.053Z,4.13
2022-11-17T02:17:13.709Z,4.45
2022-11-17T02:19:41.907Z,5.05
2022-11-17T02:22:20.330Z,4.38
2022-11-17T02:24:46.812Z,4.05
2022-11-17T02:27:19.755Z,5.97
2022-11-17T02:30:03.631Z,4.10
2022-11-17T02:35:15.168Z,5.07
2022-11-17T02:37:50.834Z,3.97
2022-11-17T02:40:20.390Z,4.32
2022-11-17T02:43:07.760Z,5.32
2022-11-17T02:45:39.880Z,3.90
2022-11-17T02:48:10.559Z,4.93
2022-11-17T02:50:38.327Z,5.97
2022-11-17T02:53:05.271Z,3.95
2022-11-17T02:55:34.263Z,5.47
2022-11-17T02:58:00.686Z,5.00
2022-11-17T03:00:28.151Z,5.28
2022-11-17T03:02:57.643Z,5.45
2022-11-17T03:05:31.313Z,5.13
2022-11-17T03:08:00.894Z,4.18
2022-11-17T03:10:39.804Z,5.25
2022-11-17T03:13:14.004Z,3.97
2022-11-17T03:15:40.412Z,7.13
2022-11-17T03:18:20.086Z,4.72
2022-11-17T03:20:49.766Z,5.70
2022-11-17T03:23:39.321Z,5.78
2022-11-17T03:26:07.717Z,4.88
2022-11-17T03:28:34.250Z,4.20
2022-11-17T03:31:01.487Z,4.55
2022-11-17T03:33:28.946Z,4.70
2022-11-17T03:35:58.666Z,4.82
2022-11-17T03:38:26.600Z,4.03
2022-11-17T03:40:55.225Z,4.95
2022-11-17T03:43:22.358Z,5.88
2022-11-17T03:45:49.947Z,4.80
2022-11-17T03:48:26.499Z,5.70
2022-11-17T03:50:57.100Z,4.35
2022-11-17T03:53:24.240Z,3.75
2022-11-17T03:56:09.044Z,5.50
2022-11-17T03:58:37.369Z,5.78
2022-11-17T04:01:05.001Z,4.18
2022-11-17T04:03:32.470Z,4.05
2022-11-17T04:05:59.681Z,3.67
2022-11-17T04:08:29.544Z,3.95
2022-11-17T04:11:15.363Z,5.22
2022-11-17T04:14:00.510Z,5.43
2022-11-17T04:16:27.074Z,4.97
2022-11-17T04:18:58.568Z,4.88
2022-11-17T04:21:25.636Z,4.22
2022-11-17T04:23:52.261Z,4.03
2022-11-17T04:26:37.315Z,5.78
2022-11-17T04:29:03.864Z,4.43
2022-11-17T04:31:31.308Z,5.05
2022-11-17T04:34:01.721Z,3.95
2022-11-17T04:36:31.259Z,3.58
2022-11-17T04:38:58.970Z,4.68
2022-11-17T04:41:45.332Z,4.13
2022-11-17T04:44:12.472Z,5.72
2022-11-17T04:46:40.040Z,4.53
2022-11-17T04:49:07.174Z,3.20
2022-11-17T04:51:34.676Z,5.38
2022-11-17T04:54:01.759Z,4.53
2022-11-17T04:56:29.314Z,3.90
2022-11-17T04:58:56.206Z,4.90
2022-11-17T05:01:23.207Z,4.22
2022-11-17T05:03:52.796Z,4.20
2022-11-17T05:06:20.739Z,7.50
2022-11-17T05:08:47.475Z,5.63
2022-11-17T05:11:33.230Z,4.28
2022-11-17T05:13:59.722Z,3.88
2022-11-17T05:16:45.324Z,4.93
2022-11-17T05:19:13.672Z,3.53
2022-11-17T05:21:40.388Z,6.78
2022-11-17T05:24:07.806Z,4.53
2022-11-17T05:26:35.115Z,3.40
2022-11-17T05:29:03.011Z,3.58
2022-11-17T05:31:30.101Z,5.10
2022-11-17T05:33:56.898Z,5.18
2022-11-17T05:36:25.929Z,5.03
2022-11-17T05:38:52.687Z,4.75
2022-11-17T05:41:19.686Z,3.80
2022-11-17T05:43:46.139Z,5.85
2022-11-17T05:46:12.720Z,5.65
2022-11-17T05:48:39.715Z,4.05
2022-11-17T05:51:06.600Z,5.38
2022-11-17T05:53:33.463Z,6.93
2022-11-17T05:56:13.723Z,5.35
2022-11-17T05:58:42.474Z,4.45
2022-11-17T06:01:09.667Z,3.40
2022-11-17T06:03:41.453Z,6.38
2022-11-17T06:06:08.670Z,4.78
2022-11-17T06:08:35.506Z,5.35
2022-11-17T06:11:01.948Z,2.95
2022-11-17T06:13:29.218Z,5.25
2022-11-17T06:15:56.427Z,4.97
2022-11-17T06:18:35.556Z,8.40
2022-11-17T06:21:02.132Z,8.02
2022-11-17T06:23:30.855Z,7.50
2022-11-17T06:25:58.556Z,7.90
2022-11-17T06:28:26.630Z,6.22
2022-11-17T06:30:54.349Z,4.07
2022-11-17T06:33:21.025Z,4.15
2022-11-17T06:35:47.968Z,4.18
2022-11-17T06:38:14.460Z,3.88
2022-11-17T06:40:41.107Z,4.93
2022-11-17T06:43:10.592Z,4.38
2022-11-17T06:45:39.648Z,7.82
2022-11-17T06:48:07.009Z,4.30
2022-11-17T06:50:33.867Z,3.65
2022-11-17T06:53:01.466Z,4.43
2022-11-17T06:55:28.397Z,4.28
2022-11-17T06:57:58.329Z,3.50
2022-11-17T07:00:24.889Z,4.40
2022-11-17T07:02:51.351Z,4.70
2022-11-17T07:05:17.975Z,4.15
2022-11-17T07:07:44.400Z,6.50
2022-11-17T07:10:10.835Z,4.30
2022-11-17T07:12:37.252Z,5.72
2022-11-17T07:15:03.895Z,5.40
2022-11-17T07:17:30.400Z,4.38
2022-11-17T07:19:56.900Z,4.53
2022-11-17T07:22:23.448Z,4.60
2022-11-17T07:24:49.972Z,6.25
2022-11-17T07:27:16.496Z,7.38
2022-11-17T07:29:43.054Z,4.78
2022-11-17T07:32:10.923Z,5.68
2022-11-17T07:34:37.375Z,7.78
2022-11-17T07:37:03.778Z,5.30
2022-11-17T07:39:31.064Z,5.80
2022-11-17T07:41:57.496Z,6.40
2022-11-17T07:44:23.909Z,5.47
2022-11-17T07:46:50.494Z,6.22
2022-11-17T07:49:17.014Z,6.13
2022-11-17T07:51:43.520Z,5.50
2022-11-17T07:54:09.956Z,5.32
2022-11-17T07:56:36.443Z,7.55
2022-11-17T07:59:02.903Z,5.38
2022-11-17T08:01:29.721Z,5.82
2022-11-17T08:03:56.373Z,6.72
2022-11-17T08:06:23.937Z,7.32
2022-11-17T08:08:50.646Z,6.57
2022-11-17T08:11:18.087Z,7.28
2022-11-17T08:13:45.162Z,7.22
2022-11-17T08:16:12.398Z,7.00
2022-11-17T08:18:39.950Z,7.75
2022-11-17T08:21:10.792Z,5.32
2022-11-17T08:23:37.541Z,7.22
2022-11-17T08:26:04.741Z,8.70
2022-11-17T08:28:31.439Z,7.80
2022-11-17T08:31:00.152Z,6.68
2022-11-17T08:33:26.604Z,12.02
2022-11-17T08:35:56.307Z,22.98
2022-11-17T08:38:24.878Z,7.47
2022-11-17T08:40:51.298Z,12.98
2022-11-17T08:43:17.933Z,7.72
2022-11-17T08:45:44.396Z,9.05
2022-11-17T08:48:10.870Z,10.85
2022-11-17T08:50:37.271Z,11.05
2022-11-17T08:53:03.813Z,12.68
2022-11-17T08:55:30.284Z,16.00
2022-11-17T08:57:56.876Z,10.07
2022-11-17T09:00:23.754Z,8.27
2022-11-17T09:02:50.271Z,7.15
2022-11-17T09:05:16.736Z,6.75
2022-11-17T09:07:43.427Z,8.27
2022-11-17T09:10:11.111Z,12.60
2022-11-17T09:12:37.820Z,8.30
2022-11-17T09:15:05.247Z,8.05
2022-11-17T09:17:32.032Z,11.68
2022-11-17T09:19:58.439Z,10.20
2022-11-17T09:22:24.912Z,11.85
2022-11-17T09:24:51.342Z,9.93
2022-11-17T09:27:17.884Z,10.02
2022-11-17T09:29:44.303Z,10.35
2022-11-17T09:32:10.789Z,11.02
2022-11-17T09:34:37.483Z,12.13
2022-11-17T09:37:04.046Z,9.27
2022-11-17T09:39:30.530Z,9.43
2022-11-17T09:41:57.279Z,9.50
2022-11-17T09:44:41.559Z,8.20
2022-11-17T09:47:07.983Z,8.93
2022-11-17T09:49:34.923Z,10.57
2022-11-17T09:52:22.050Z,8.40
2022-11-17T09:54:51.043Z,12.48
2022-11-17T09:57:36.519Z,12.52
2022-11-17T10:00:11.517Z,8.75
2022-11-17T10:02:38.111Z,11.13
2022-11-17T10:05:04.710Z,9.63
2022-11-17T10:07:32.199Z,8.63
2022-11-17T10:10:00.162Z,10.07
2022-11-17T10:12:31.528Z,10.35
2022-11-17T10:14:58.480Z,10.85
2022-11-17T10:17:24.904Z,12.82
2022-11-17T10:19:51.339Z,9.57
2022-11-17T10:22:34.491Z,14.32
2022-11-17T10:25:00.956Z,8.52
2022-11-17T10:27:28.607Z,13.32
2022-11-17T10:30:07.197Z,9.70
2022-11-17T10:32:48.665Z,6.55
2022-11-17T10:35:16.714Z,6.53
2022-11-17T10:38:03.516Z,7.90
2022-11-17T10:40:32.007Z,7.75
2022-11-17T10:43:02.105Z,7.45
2022-11-17T10:45:28.776Z,8.93
2022-11-17T10:48:15.558Z,8.10
2022-11-17T10:50:50.952Z,6.85
2022-11-17T10:53:28.408Z,9.60
2022-11-17T10:56:00.601Z,7.03
2022-11-17T10:58:28.386Z,8.65
2022-11-17T11:00:56.450Z,6.97
2022-11-17T11:03:30.815Z,7.07
2022-11-17T11:05:57.253Z,9.70
2022-11-17T11:08:25.804Z,8.05
2022-11-17T11:10:53.222Z,9.00
2022-11-17T11:13:19.656Z,10.63
2022-11-17T11:15:46.305Z,10.60
2022-11-17T11:18:16.631Z,13.48
2022-11-17T11:20:50.115Z,14.70
2022-11-17T11:25:49.192Z,9.32
2022-11-17T11:28:18.383Z,11.45
2022-11-17T11:31:03.564Z,11.32
2022-11-17T11:33:35.080Z,8.25
2022-11-17T11:36:15.085Z,7.88
2022-11-17T11:38:56.783Z,7.47
2022-11-17T11:41:25.973Z,6.03
2022-11-17T11:44:11.240Z,8.20
2022-11-17T11:46:56.186Z,7.93
2022-11-17T11:49:22.663Z,8.85
2022-11-17T11:51:50.075Z,8.52
2022-11-17T11:54:20.672Z,8.13
2022-11-17T11:56:47.822Z,7.00
2022-11-17T11:59:17.328Z,5.30
2022-11-17T12:01:48.151Z,7.35
2022-11-17T12:04:33.660Z,7.05
2022-11-17T12:07:29.379Z,5.40
2022-11-17T12:10:14.729Z,6.05
2022-11-17T12:12:44.363Z,6.07
2022-11-17T12:15:19.695Z,6.00
2022-11-17T12:17:51.941Z,5.97
2022-11-17T12:20:44.524Z,5.63
2022-11-17T12:23:29.858Z,6.00
2022-11-17T12:26:00.014Z,5.93
2022-11-17T12:28:37.242Z,13.80
2022-11-17T12:31:10.839Z,8.40
2022-11-17T12:33:52.786Z,7.93
2022-11-17T12:36:30.487Z,8.55
2022-11-17T12:38:58.162Z,6.47
2022-11-17T12:41:43.183Z,6.22
2022-11-17T12:44:28.349Z,6.75
2022-11-17T12:46:58.799Z,8.13
2022-11-17T12:49:31.793Z,6.82
2022-11-17T12:52:02.089Z,6.10
2022-11-17T12:54:35.563Z,8.07
2022-11-17T12:59:46.601Z,6.85
2022-11-17T13:02:13.102Z,7.80
2022-11-17T13:04:39.564Z,6.45
2022-11-17T13:07:07.590Z,6.25
2022-11-17T13:09:35.370Z,8.05
2022-11-17T13:12:10.449Z,8.32
2022-11-17T13:14:51.119Z,5.03
2022-11-17T13:17:19.002Z,6.25
2022-11-17T13:19:45.857Z,6.07
2022-11-17T13:22:13.685Z,7.55
2022-11-17T13:24:41.684Z,6.68
2022-11-17T13:27:22.224Z,5.20
2022-11-17T13:29:49.069Z,5.32
2022-11-17T13:32:23.784Z,6.43
2022-11-17T13:34:52.421Z,6.88
2022-11-17T13:37:20.867Z,7.15
2022-11-17T13:39:57.684Z,5.40
2022-11-17T13:42:25.465Z,8.32
2022-11-17T13:44:53.722Z,7.97
2022-11-17T13:47:21.646Z,5.28
2022-11-17T13:49:48.461Z,6.70
2022-11-17T13:52:40.428Z,6.97
2022-11-17T13:55:16.097Z,6.65
2022-11-17T13:57:53.066Z,6.18
2022-11-17T14:00:19.756Z,7.53
2022-11-17T14:02:53.720Z,7.75
2022-11-17T14:05:24.267Z,8.52
2022-11-17T14:07:51.631Z,9.70
2022-11-17T14:10:20.943Z,8.27
2022-11-17T14:12:47.771Z,8.02
2022-11-17T14:15:20.120Z,10.23
2022-11-17T14:17:50.671Z,7.03
2022-11-17T14:20:18.072Z,9.25
2022-11-17T14:22:59.044Z,10.23
2022-11-17T14:25:26.048Z,9.75
2022-11-17T14:27:53.450Z,10.07
2022-11-17T14:30:20.080Z,11.85
2022-11-17T14:32:46.576Z,11.82
2022-11-17T14:35:14.513Z,14.68
2022-11-17T14:37:41.822Z,13.40
2022-11-17T14:40:20.389Z,13.30
2022-11-17T14:42:46.825Z,14.38
2022-11-17T14:45:14.368Z,17.58
2022-11-17T14:47:41.237Z,15.40
2022-11-17T14:50:08.575Z,17.23
2022-11-17T14:52:36.179Z,16.05
2022-11-17T14:55:02.618Z,15.50
2022-11-17T14:57:29.066Z,21.65
2022-11-17T14:59:55.544Z,16.17
2022-11-17T15:02:23.006Z,17.55
2022-11-17T15:04:51.272Z,16.55
2022-11-17T15:07:18.264Z,20.83
2022-11-17T15:09:44.761Z,20.40
2022-11-17T15:12:11.256Z,21.83
2022-11-17T15:14:37.754Z,23.83
2022-11-17T15:17:05.089Z,24.23
2022-11-17T15:19:32.347Z,27.30
2022-11-17T15:21:58.774Z,24.20
2022-11-17T15:24:25.244Z,24.73
2022-11-17T15:26:51.957Z,25.50
2022-11-17T15:29:18.927Z,27.67
2022-11-17T15:31:45.483Z,28.30
2022-11-17T15:34:15.633Z,28.25
2022-11-17T15:36:46.271Z,26.48
2022-11-17T15:39:13.049Z,28.80
2022-11-17T15:41:39.800Z,28.63
2022-11-17T15:44:06.282Z,28.92
2022-11-17T15:46:32.741Z,28.65
2022-11-17T15:48:59.244Z,29.52
2022-11-17T15:51:26.866Z,30.75
2022-11-17T15:53:56.391Z,28.48
2022-11-17T15:56:23.769Z,27.38
2022-11-17T15:58:57.361Z,30.48
2022-11-17T16:01:23.836Z,29.92
2022-11-17T16:03:51.109Z,30.30
2022-11-17T16:06:18.087Z,34.63
2022-11-17T16:08:44.935Z,35.70
2022-11-17T16:11:11.574Z,49.75
2022-11-17T16:13:38.072Z,52.75
2022-11-17T16:16:04.763Z,59.38
2022-11-17T16:18:34.571Z,58.95
2022-11-17T16:21:05.362Z,47.30
2022-11-17T16:23:37.017Z,68.47
2022-11-17T16:26:03.533Z,83.07
2022-11-17T16:28:29.951Z,72.82
2022-11-17T16:30:56.434Z,60.40
2022-11-17T16:33:22.876Z,64.15
2022-11-17T16:35:49.301Z,60.80
2022-11-17T16:38:16.431Z,50.30
2022-11-17T16:40:43.350Z,38.75
2022-11-17T16:43:13.157Z,35.33
2022-11-17T16:45:44.651Z,40.25
2022-11-17T16:48:11.959Z,39.78
2022-11-17T16:50:39.201Z,33.53
2022-11-17T16:53:06.127Z,34.90
2022-11-17T16:55:34.987Z,37.88
2022-11-17T16:58:02.121Z,33.55
2022-11-17T17:00:28.758Z,37.63
2022-11-17T17:02:57.043Z,35.90
2022-11-17T17:05:29.341Z,35.08
2022-11-17T17:07:56.939Z,33.67
2022-11-17T17:10:23.968Z,31.30
2022-11-17T17:12:50.487Z,34.05
2022-11-17T17:15:17.034Z,35.70
2022-11-17T17:17:43.459Z,35.65
2022-11-17T17:20:10.049Z,33.20
2022-11-17T17:22:36.463Z,32.28
2022-11-17T17:25:03.728Z,31.45
2022-11-17T17:27:31.203Z,28.83
2022-11-17T17:29:57.783Z,27.92
2022-11-17T17:32:24.206Z,30.67
2022-11-17T17:34:50.764Z,33.28
2022-11-17T17:37:18.141Z,32.13
2022-11-17T17:39:44.631Z,30.77
2022-11-17T17:42:11.819Z,30.75
2022-11-17T17:44:38.232Z,31.30
2022-11-17T17:47:04.814Z,26.20
2022-11-17T17:49:31.262Z,28.95
2022-11-17T17:51:57.703Z,27.95
2022-11-17T17:54:25.172Z,28.65
2022-11-17T17:56:51.682Z,28.75
2022-11-17T17:59:18.934Z,30.25
2022-11-17T18:01:49.604Z,32.75
2022-11-17T18:04:16.840Z,30.35
2022-11-17T18:06:46.133Z,28.15
2022-11-17T18:09:14.583Z,29.05
2022-11-17T18:11:49.423Z,26.85
2022-11-17T18:14:23.691Z,34.83
2022-11-17T18:16:50.395Z,28.83
2022-11-17T18:19:17.605Z,27.45
2022-11-17T18:21:44.377Z,29.67
2022-11-17T18:24:11.956Z,30.48
2022-11-17T18:26:39.398Z,34.58
2022-11-17T18:29:07.216Z,32.55
2022-11-17T18:31:34.500Z,35.28
2022-11-17T18:34:02.718Z,35.28
2022-11-17T18:36:29.560Z,34.92
2022-11-17T18:38:57.942Z,30.42
2022-11-17T18:41:25.149Z,29.23
2022-11-17T18:43:52.323Z,22.33
2022-11-17T18:46:21.344Z,26.92
2022-11-17T18:48:49.145Z,31.42
2022-11-17T18:51:20.791Z,23.35
2022-11-17T18:53:51.701Z,24.45
2022-11-17T18:56:19.535Z,25.60
2022-11-17T18:58:46.423Z,27.75
2022-11-17T19:01:14.824Z,25.85
2022-11-17T19:03:42.552Z,24.83
2022-11-17T19:06:09.724Z,23.20
2022-11-17T19:08:36.825Z,25.75
2022-11-17T19:11:06.256Z,27.83
2022-11-17T19:13:34.325Z,27.67
2022-11-17T19:16:06.759Z,26.70
2022-11-17T19:18:33.449Z,18.23
2022-11-17T19:21:26.321Z,21.75
2022-11-17T19:23:53.334Z,9.50
2022-11-17T19:26:21.512Z,14.93
2022-11-17T19:28:48.163Z,17.23
2022-11-17T19:31:16.879Z,18.05
2022-11-17T19:33:44.146Z,18.65
2022-11-17T19:36:15.108Z,20.17
2022-11-17T19:38:43.082Z,20.35
2022-11-17T19:41:13.852Z,17.83
2022-11-17T19:43:45.082Z,18.45
2022-11-17T19:46:13.306Z,13.60
2022-11-17T19:48:40.716Z,15.32
2022-11-17T19:51:27.195Z,15.80
2022-11-17T19:53:54.921Z,15.27
2022-11-17T19:56:22.194Z,15.57
2022-11-17T19:58:49.793Z,16.67
2022-11-17T20:01:20.708Z,20.17
2022-11-17T20:03:47.231Z,18.13
2022-11-17T20:06:15.624Z,18.25
2022-11-17T20:08:42.231Z,18.83
2022-11-17T20:11:11.456Z,21.73
2022-11-17T20:13:38.623Z,24.88
2022-11-17T20:16:11.697Z,24.60
2022-11-17T20:18:38.381Z,23.75
2022-11-17T20:21:05.432Z,18.20
2022-11-17T20:23:35.908Z,18.23
2022-11-17T20:26:06.520Z,13.48
2022-11-17T20:28:35.944Z,14.90
2022-11-17T20:31:10.019Z,13.70
2022-11-17T20:33:37.834Z,17.05
2022-11-17T20:36:04.467Z,12.60
2022-11-17T20:38:31.007Z,9.75
2022-11-17T20:40:58.584Z,9.90
2022-11-17T20:43:25.484Z,10.23
2022-11-17T20:45:52.506Z,10.35
2022-11-17T20:48:19.244Z,10.48
2022-11-17T20:51:02.237Z,13.00
2022-11-17T20:53:29.176Z,12.27
2022-11-17T20:55:56.527Z,16.38
2022-11-17T20:58:23.759Z,14.18
2022-11-17T21:00:50.244Z,10.52
2022-11-17T21:03:16.868Z,10.88
2022-11-17T21:05:43.483Z,15.75
2022-11-17T21:08:10.015Z,23.05
2022-11-17T21:10:36.927Z,21.67
2022-11-17T21:13:03.383Z,19.08
2022-11-17T21:15:29.848Z,22.60
2022-11-17T21:18:14.996Z,13.68
2022-11-17T21:20:41.516Z,11.77
2022-11-17T21:23:07.932Z,12.75
2022-11-17T21:25:35.297Z,13.43
2022-11-17T21:28:01.726Z,13.20
2022-11-17T21:30:28.169Z,12.73
2022-11-17T21:32:54.601Z,12.90
2022-11-17T21:35:21.016Z,12.30
2022-11-17T21:37:47.594Z,14.63
2022-11-17T21:40:14.348Z,12.75
2022-11-17T21:42:40.824Z,13.07
2022-11-17T21:45:08.302Z,12.23
2022-11-17T21:47:34.720Z,14.98
2022-11-17T21:50:01.236Z,15.23
2022-11-17T21:52:27.669Z,18.63
2022-11-17T21:54:54.154Z,19.38
2022-11-17T21:57:20.668Z,18.05
2022-11-17T21:59:47.516Z,21.00
2022-11-17T22:02:15.169Z,22.30
2022-11-17T22:04:41.608Z,15.35
2022-11-17T22:07:08.098Z,15.50
2022-11-17T22:09:35.775Z,19.25
2022-11-17T22:12:02.600Z,21.48
2022-11-17T22:14:29.167Z,20.83
2022-11-17T22:16:56.422Z,19.80
2022-11-17T22:19:24.034Z,19.08
2022-11-17T22:21:51.567Z,20.02
2022-11-17T22:24:18.080Z,17.63
2022-11-17T22:26:44.907Z,21.63
2022-11-17T22:29:12.429Z,17.52
2022-11-17T22:31:38.888Z,16.92
2022-11-17T22:34:05.415Z,17.15
2022-11-17T22:36:32.332Z,15.38
2022-11-17T22:38:58.876Z,16.15
2022-11-17T22:41:25.361Z,17.63
2022-11-17T22:43:53.006Z,16.50
2022-11-17T22:46:20.208Z,17.90
2022-11-17T22:48:47.106Z,15.25
2022-11-17T22:51:33.876Z,15.77
2022-11-17T22:54:00.650Z,13.95
2022-11-17T22:56:27.256Z,12.15
2022-11-17T22:58:59.344Z,14.18
2022-11-17T23:01:26.250Z,16.70
2022-11-17T23:03:52.849Z,17.10
2022-11-17T23:06:19.402Z,17.23
2022-11-17T23:08:45.873Z,15.52
2022-11-17T23:11:36.035Z,19.25
2022-11-17T23:13:58.815Z,16.08
2022-11-17T23:16:25.295Z,15.23
2022-11-17T23:18:53.426Z,15.63
2022-11-17T23:21:19.916Z,14.18
2022-11-17T23:23:46.407Z,17.45
2022-11-17T23:26:13.375Z,14.82
2022-11-17T23:28:40.799Z,15.95
2022-11-17T23:31:09.500Z,18.15
2022-11-17T23:33:36.926Z,25.63
2022-11-17T23:36:04.552Z,22.00
2022-11-17T23:38:31.758Z,18.77
2022-11-17T23:40:59.989Z,17.73
2022-11-17T23:43:26.581Z,17.15
2022-11-17T23:45:53.125Z,21.15
2022-11-17T23:48:19.635Z,22.17
2022-11-17T23:50:46.111Z,17.55
2022-11-17T23:53:12.520Z,15.18
2022-11-17T23:55:38.981Z,15.85
2022-11-17T23:58:05.956Z,15.07
